createdAt,value
2022-12-03T01:15:22.581Z,19.00
2022-12-03T01:17:55.894Z,19.33
2022-12-03T01:20:26.627Z,19.67
2022-12-03T01:22:57.066Z,19.20
2022-12-03T01:25:27.640Z,16.80
2022-12-03T01:27:57.893Z,14.48
2022-12-03T01:30:28.411Z,14.68
2022-12-03T01:32:59.175Z,15.90
2022-12-03T01:35:29.625Z,13.70
2022-12-03T01:38:00.813Z,15.25
2022-12-03T01:40:31.176Z,14.70
2022-12-03T01:43:01.532Z,15.38
2022-12-03T01:45:32.253Z,15.60
2022-12-03T01:48:02.614Z,19.77
2022-12-03T01:50:34.894Z,14.05
2022-12-03T01:53:06.630Z,12.95
2022-12-03T01:55:37.226Z,14.25
2022-12-03T01:58:07.638Z,12.52
2022-12-03T02:00:38.200Z,15.63
2022-12-03T02:03:20.425Z,11.95
2022-12-03T02:05:51.209Z,10.75
2022-12-03T02:08:42.450Z,10.82
2022-12-03T02:11:32.244Z,11.75
2022-12-03T02:14:06.730Z,12.35
2022-12-03T02:16:38.763Z,13.15
2022-12-03T02:19:13.035Z,16.02
2022-12-03T02:22:02.847Z,16.20
2022-12-03T02:24:42.745Z,11.85
2022-12-03T02:27:13.082Z,12.15
2022-12-03T02:29:43.771Z,10.35
2022-12-03T02:32:14.908Z,11.95
2022-12-03T02:34:47.128Z,9.68
2022-12-03T02:37:20.030Z,11.32
2022-12-03T02:39:52.057Z,13.43
2022-12-03T02:42:42.710Z,10.10
2022-12-03T02:45:32.420Z,10.50
2022-12-03T02:48:05.391Z,13.25
2022-12-03T02:50:37.238Z,18.20
2022-12-03T02:53:11.253Z,18.58
2022-12-03T02:55:41.672Z,11.13
2022-12-03T02:58:13.043Z,11.57
2022-12-03T03:00:44.161Z,11.30
2022-12-03T03:03:15.319Z,12.63
2022-12-03T03:05:47.106Z,11.98
2022-12-03T03:08:17.995Z,10.02
2022-12-03T03:10:49.605Z,9.40
2022-12-03T03:13:21.360Z,11.15
2022-12-03T03:15:52.012Z,9.10
2022-12-03T03:18:22.663Z,8.43
2022-12-03T03:20:52.903Z,9.85
2022-12-03T03:23:24.501Z,8.90
2022-12-03T03:26:14.694Z,10.10
2022-12-03T03:28:46.626Z,9.82
2022-12-03T03:31:18.137Z,19.85
2022-12-03T03:33:50.502Z,26.40
2022-12-03T03:36:21.393Z,33.90
2022-12-03T03:38:51.999Z,8.40
2022-12-03T03:41:23.414Z,8.60
2022-12-03T03:43:54.029Z,11.00
2022-12-03T03:46:25.387Z,8.77
2022-12-03T03:48:56.190Z,8.40
2022-12-03T03:51:27.860Z,8.13
2022-12-03T03:53:58.169Z,5.88
2022-12-03T03:56:29.372Z,6.32
2022-12-03T03:59:00.050Z,7.55
2022-12-03T04:01:30.547Z,7.03
2022-12-03T04:04:01.464Z,8.88
2022-12-03T04:06:32.037Z,8.10
2022-12-03T04:09:02.624Z,6.32
2022-12-03T04:11:52.857Z,6.15
2022-12-03T04:14:23.553Z,8.60
2022-12-03T04:16:55.895Z,8.05
2022-12-03T04:19:26.932Z,8.15
2022-12-03T04:22:17.378Z,8.50
2022-12-03T04:24:47.743Z,5.35
2022-12-03T04:27:38.024Z,6.28
2022-12-03T04:30:08.862Z,5.95
2022-12-03T04:32:58.834Z,5.07
2022-12-03T04:35:49.441Z,6.13
2022-12-03T04:38:20.212Z,5.97
2022-12-03T04:41:10.163Z,5.85
2022-12-03T04:44:00.361Z,5.32
2022-12-03T04:46:30.938Z,5.25
2022-12-03T04:49:01.508Z,5.15
2022-12-03T04:51:32.104Z,6.15
2022-12-03T04:54:02.856Z,4.72
2022-12-03T04:56:34.305Z,6.57
2022-12-03T04:59:04.795Z,6.20
2022-12-03T05:01:35.966Z,5.82
2022-12-03T05:04:06.431Z,5.40
2022-12-03T05:06:36.836Z,6.82
2022-12-03T05:09:07.826Z,7.55
2022-12-03T05:11:38.081Z,6.07
2022-12-03T05:14:08.860Z,5.13
2022-12-03T05:16:39.765Z,5.72
2022-12-03T05:19:11.142Z,7.70
2022-12-03T05:21:41.972Z,6.60
2022-12-03T05:24:12.323Z,6.18
2022-12-03T05:26:42.749Z,5.93
2022-12-03T05:29:13.677Z,7.45
2022-12-03T05:31:44.100Z,6.35
2022-12-03T05:34:14.822Z,6.97
2022-12-03T05:36:46.065Z,7.50
2022-12-03T05:39:16.566Z,6.10
2022-12-03T05:42:06.711Z,6.03
2022-12-03T05:44:37.294Z,11.77
2022-12-03T05:47:07.604Z,11.10
2022-12-03T05:49:37.959Z,8.88
2022-12-03T05:52:08.639Z,6.40
2022-12-03T05:54:39.457Z,6.40
2022-12-03T05:57:10.278Z,6.72
2022-12-03T05:59:40.917Z,7.03
2022-12-03T06:02:11.533Z,7.53
2022-12-03T06:04:41.763Z,7.30
2022-12-03T06:07:14.185Z,7.35
2022-12-03T06:09:44.683Z,6.88
2022-12-03T06:12:16.044Z,6.40
2022-12-03T06:14:47.005Z,6.88
2022-12-03T06:17:17.969Z,6.07
2022-12-03T06:19:48.683Z,8.68
2022-12-03T06:22:19.332Z,10.35
2022-12-03T06:24:49.813Z,7.03
2022-12-03T06:27:20.059Z,6.88
2022-12-03T06:29:51.076Z,5.95
2022-12-03T06:32:21.851Z,6.70
2022-12-03T06:34:53.134Z,8.13
2022-12-03T06:37:23.654Z,6.50
2022-12-03T06:39:54.394Z,7.78
2022-12-03T06:42:24.822Z,7.18
2022-12-03T06:44:55.968Z,6.10
2022-12-03T06:47:27.419Z,6.63
2022-12-03T06:49:57.930Z,6.65
2022-12-03T06:52:28.326Z,6.00
2022-12-03T06:54:59.033Z,6.40
2022-12-03T06:57:29.853Z,6.32
2022-12-03T07:00:00.211Z,7.57
2022-12-03T07:02:30.670Z,7.50
2022-12-03T07:05:01.644Z,6.88
2022-12-03T07:07:35.184Z,6.57
2022-12-03T07:10:06.138Z,8.85
2022-12-03T07:12:36.863Z,10.55
2022-12-03T07:15:07.512Z,11.10
2022-12-03T07:17:38.740Z,10.52
2022-12-03T07:20:09.813Z,10.20
2022-12-03T07:22:40.231Z,7.30
2022-12-03T07:25:10.947Z,10.43
2022-12-03T07:27:41.879Z,7.38
2022-12-03T07:30:14.229Z,7.95
2022-12-03T07:32:44.968Z,6.88
2022-12-03T07:35:15.760Z,13.50
2022-12-03T07:37:46.819Z,6.72
2022-12-03T07:40:17.103Z,6.90
2022-12-03T07:42:48.111Z,8.88
2022-12-03T07:45:19.456Z,6.43
2022-12-03T07:47:50.249Z,13.07
2022-12-03T07:50:21.102Z,6.65
2022-12-03T07:52:52.592Z,6.47
2022-12-03T07:55:23.031Z,7.18
2022-12-03T07:57:53.596Z,8.10
2022-12-03T08:00:25.623Z,6.85
2022-12-03T08:02:56.815Z,6.57
2022-12-03T08:05:28.378Z,7.25
2022-12-03T08:07:59.031Z,7.10
2022-12-03T08:10:29.586Z,8.63
2022-12-03T08:13:01.915Z,6.93
2022-12-03T08:15:37.277Z,6.03
2022-12-03T08:18:20.266Z,6.70
2022-12-03T08:20:52.486Z,6.50
2022-12-03T08:23:24.538Z,7.30
2022-12-03T08:25:55.561Z,6.80
2022-12-03T08:28:30.120Z,7.63
2022-12-03T08:31:21.544Z,6.53
2022-12-03T08:33:54.167Z,6.82
2022-12-03T08:36:26.451Z,6.15
2022-12-03T08:39:16.477Z,6.72
2022-12-03T08:42:13.458Z,5.80
2022-12-03T08:44:44.458Z,6.55
2022-12-03T08:47:32.674Z,8.95
2022-12-03T08:50:06.612Z,8.68
2022-12-03T08:52:37.487Z,6.97
2022-12-03T08:55:27.938Z,7.10
2022-12-03T08:57:58.720Z,8.68
2022-12-03T09:00:29.461Z,22.00
2022-12-03T09:03:02.294Z,24.00
2022-12-03T09:05:34.972Z,8.18
2022-12-03T09:08:05.827Z,9.30
2022-12-03T09:10:36.294Z,10.05
2022-12-03T09:13:06.579Z,6.03
2022-12-03T09:15:37.298Z,6.28
2022-12-03T09:18:08.336Z,6.93
2022-12-03T09:20:38.574Z,9.93
2022-12-03T09:23:09.723Z,7.40
2022-12-03T09:25:40.653Z,9.02
2022-12-03T09:28:11.963Z,7.90
2022-12-03T09:30:42.851Z,6.30
2022-12-03T09:33:13.904Z,5.65
2022-12-03T09:35:44.146Z,6.15
2022-12-03T09:38:14.623Z,9.18
2022-12-03T09:40:45.848Z,10.27
2022-12-03T09:43:16.947Z,13.25
2022-12-03T09:45:48.920Z,7.30
2022-12-03T09:48:24.066Z,14.18
2022-12-03T09:50:54.909Z,10.57
2022-12-03T09:53:27.472Z,10.05
2022-12-03T09:56:01.530Z,11.10
2022-12-03T09:58:34.717Z,8.00
2022-12-03T10:01:05.536Z,7.60
2022-12-03T10:03:35.729Z,8.00
2022-12-03T10:06:06.071Z,9.43
2022-12-03T10:08:36.235Z,6.78
2022-12-03T10:11:06.752Z,7.22
2022-12-03T10:13:39.057Z,11.70
2022-12-03T10:16:13.909Z,14.38
2022-12-03T10:18:49.730Z,12.77
2022-12-03T10:21:22.848Z,13.45
2022-12-03T10:24:13.552Z,10.35
2022-12-03T10:26:44.127Z,16.58
2022-12-03T10:29:20.861Z,12.40
2022-12-03T10:32:01.689Z,13.95
2022-12-03T10:34:40.111Z,15.27
2022-12-03T10:37:20.487Z,9.43
2022-12-03T10:40:10.865Z,11.15
2022-12-03T10:42:42.569Z,10.57
2022-12-03T10:45:21.777Z,13.75
2022-12-03T10:48:11.542Z,24.55
2022-12-03T10:50:49.864Z,22.95
2022-12-03T10:53:21.039Z,21.60
2022-12-03T10:55:53.066Z,30.83
2022-12-03T10:58:27.824Z,25.65
2022-12-03T11:00:59.418Z,16.70
2022-12-03T11:03:32.941Z,11.48
2022-12-03T11:06:04.195Z,18.02
2022-12-03T11:08:38.086Z,15.70
2022-12-03T11:11:18.902Z,20.33
2022-12-03T11:13:52.390Z,93.13
2022-12-03T11:16:43.542Z,41.50
2022-12-03T11:19:21.129Z,28.00
2022-12-03T11:22:12.129Z,20.52
2022-12-03T11:24:42.713Z,18.85
2022-12-03T11:27:20.465Z,24.52
2022-12-03T11:29:55.592Z,33.75
2022-12-03T11:32:45.628Z,35.83
2022-12-03T11:35:16.615Z,34.05
2022-12-03T11:37:47.850Z,38.10
2022-12-03T11:40:39.538Z,47.03
2022-12-03T11:43:12.812Z,84.15
2022-12-03T11:45:44.388Z,114.10
2022-12-03T11:48:16.282Z,56.45
2022-12-03T11:50:56.215Z,42.10
2022-12-03T11:53:27.605Z,97.38
2022-12-03T11:56:12.777Z,92.30
2022-12-03T11:58:46.839Z,118.10
2022-12-03T12:01:18.537Z,210.40
2022-12-03T12:03:51.296Z,139.25
2022-12-03T12:06:23.263Z,49.40
2022-12-03T12:08:58.495Z,28.40
2022-12-03T12:11:31.756Z,26.90
2022-12-03T12:14:05.451Z,27.40
2022-12-03T12:16:56.643Z,28.52
2022-12-03T12:19:52.669Z,23.00
2022-12-03T12:22:32.469Z,29.48
2022-12-03T12:25:05.238Z,25.65
2022-12-03T12:27:47.049Z,28.23
2022-12-03T12:30:19.843Z,31.20
2022-12-03T12:33:04.541Z,113.95
2022-12-03T12:35:35.218Z,28.33
2022-12-03T12:38:15.214Z,35.47
2022-12-03T12:40:47.182Z,41.20
2022-12-03T12:43:27.970Z,28.90
2022-12-03T12:46:05.704Z,33.78
2022-12-03T12:48:49.265Z,39.30
2022-12-03T12:51:20.347Z,26.67
2022-12-03T12:53:51.879Z,41.40
2022-12-03T12:56:43.990Z,39.63
2022-12-03T12:59:15.928Z,29.35
2022-12-03T13:01:47.216Z,32.60
2022-12-03T13:04:22.341Z,28.85
2022-12-03T13:06:54.703Z,25.85
2022-12-03T13:09:26.591Z,31.00
2022-12-03T13:12:00.327Z,27.73
2022-12-03T13:14:34.842Z,67.18
2022-12-03T13:17:13.559Z,27.23
2022-12-03T13:19:49.482Z,28.83
2022-12-03T13:22:23.871Z,24.17
2022-12-03T13:24:55.908Z,23.67
2022-12-03T13:27:34.248Z,21.55
2022-12-03T13:30:09.198Z,21.58
2022-12-03T13:32:40.354Z,26.05
2022-12-03T13:35:25.765Z,23.05
2022-12-03T13:37:56.712Z,19.00
2022-12-03T13:40:38.149Z,24.83
2022-12-03T13:43:15.149Z,26.33
2022-12-03T13:45:49.951Z,19.95
2022-12-03T13:48:27.955Z,18.90
2022-12-03T13:50:59.253Z,23.17
2022-12-03T13:53:36.829Z,22.67
2022-12-03T13:56:21.934Z,22.50
2022-12-03T13:58:52.794Z,25.35
2022-12-03T14:01:23.608Z,22.35
2022-12-03T14:03:54.116Z,22.38
2022-12-03T14:06:24.386Z,25.20
2022-12-03T14:08:54.568Z,24.00
2022-12-03T14:11:44.697Z,26.33
2022-12-03T14:14:15.563Z,30.63
2022-12-03T14:16:45.886Z,235.95
2022-12-03T14:19:16.484Z,33.92
2022-12-03T14:21:47.061Z,30.30
2022-12-03T14:24:17.709Z,29.95
2022-12-03T14:26:48.333Z,25.05
2022-12-03T14:29:19.933Z,30.80
2022-12-03T14:31:50.796Z,26.50
2022-12-03T14:34:21.479Z,28.17
2022-12-03T14:36:54.084Z,31.45
2022-12-03T14:39:25.244Z,31.98
2022-12-03T14:42:15.852Z,31.95
2022-12-03T14:44:49.074Z,23.63
2022-12-03T14:47:23.860Z,27.02
2022-12-03T14:49:55.165Z,26.27
2022-12-03T14:52:26.127Z,23.95
2022-12-03T14:54:56.382Z,26.17
2022-12-03T14:57:27.478Z,25.42
2022-12-03T14:59:58.124Z,23.75
2022-12-03T15:02:28.883Z,31.15
2022-12-03T15:04:59.439Z,24.45
2022-12-03T15:07:29.625Z,25.50
2022-12-03T15:10:00.697Z,25.52
2022-12-03T15:12:31.389Z,26.23
2022-12-03T15:15:02.161Z,24.77
2022-12-03T15:17:33.321Z,28.27
2022-12-03T15:20:03.540Z,23.98
2022-12-03T15:22:34.080Z,28.08
2022-12-03T15:25:05.116Z,27.38
2022-12-03T15:27:35.743Z,24.70
2022-12-03T15:30:06.652Z,23.60
2022-12-03T15:32:37.105Z,24.00
2022-12-03T15:35:09.292Z,23.73
2022-12-03T15:37:39.779Z,28.17
2022-12-03T15:40:10.685Z,150.52
2022-12-03T15:42:41.623Z,256.48
2022-12-03T15:45:15.123Z,95.57
2022-12-03T15:47:46.323Z,37.17
2022-12-03T15:50:16.595Z,25.95
2022-12-03T15:52:47.095Z,26.10
2022-12-03T15:55:17.948Z,28.90
2022-12-03T15:57:48.316Z,27.75
2022-12-03T16:00:20.136Z,28.88
2022-12-03T16:02:52.978Z,27.63
2022-12-03T16:05:23.836Z,23.95
2022-12-03T16:07:54.612Z,29.17
2022-12-03T16:10:25.057Z,25.23
2022-12-03T16:12:55.333Z,29.35
2022-12-03T16:15:27.480Z,25.48
2022-12-03T16:17:57.891Z,24.08
2022-12-03T16:20:28.823Z,25.75
2022-12-03T16:22:59.346Z,27.67
2022-12-03T16:25:29.992Z,20.38
2022-12-03T16:28:00.802Z,23.30
2022-12-03T16:30:31.352Z,24.92
2022-12-03T16:33:01.361Z,24.60
2022-12-03T16:35:31.866Z,23.35
2022-12-03T16:38:02.435Z,22.55
2022-12-03T16:40:33.405Z,71.70
2022-12-03T16:43:05.914Z,129.60
2022-12-03T16:45:56.864Z,39.15
2022-12-03T16:48:27.772Z,23.73
2022-12-03T16:50:58.329Z,22.38
2022-12-03T16:53:28.808Z,24.40
2022-12-03T16:55:59.031Z,20.98
2022-12-03T16:58:29.478Z,25.10
2022-12-03T17:00:59.995Z,21.60
2022-12-03T17:03:33.873Z,23.15
2022-12-03T17:06:05.818Z,24.20
2022-12-03T17:08:36.323Z,23.50
2022-12-03T17:11:06.986Z,33.08
2022-12-03T17:13:38.005Z,35.53
2022-12-03T17:16:08.568Z,34.15
2022-12-03T17:18:38.799Z,46.97
2022-12-03T17:21:09.195Z,46.80
2022-12-03T17:23:40.105Z,50.40
2022-12-03T17:26:10.915Z,46.90
2022-12-03T17:28:41.926Z,39.25
2022-12-03T17:31:12.227Z,34.30
2022-12-03T17:33:43.215Z,37.22
2022-12-03T17:36:13.804Z,38.25
2022-12-03T17:38:44.392Z,35.80
2022-12-03T17:41:15.001Z,31.67
2022-12-03T17:43:45.236Z,31.33
2022-12-03T17:46:15.589Z,27.38
2022-12-03T17:48:46.307Z,612.58
2022-12-03T17:51:16.991Z,483.58
2022-12-03T17:53:47.752Z,126.03
2022-12-03T17:56:18.352Z,31.50
2022-12-03T17:58:48.986Z,27.30
2022-12-03T18:01:19.863Z,25.45
2022-12-03T18:03:50.981Z,23.83
2022-12-03T18:06:21.224Z,22.67
2022-12-03T18:08:51.471Z,26.10
2022-12-03T18:11:22.049Z,24.75
2022-12-03T18:13:52.562Z,28.15
2022-12-03T18:16:23.610Z,36.47
2022-12-03T18:18:57.131Z,58.30
2022-12-03T18:21:30.203Z,72.47
2022-12-03T18:24:01.768Z,68.97
2022-12-03T18:26:32.513Z,52.22
2022-12-03T18:29:03.249Z,41.38
2022-12-03T18:31:34.008Z,29.52
2022-12-03T18:34:04.437Z,25.05
2022-12-03T18:36:37.682Z,25.38
2022-12-03T18:39:10.906Z,24.75
2022-12-03T18:41:41.441Z,24.73
2022-12-03T18:44:13.150Z,26.55
2022-12-03T18:46:53.441Z,24.70
2022-12-03T18:49:25.082Z,33.30
2022-12-03T18:51:59.568Z,33.95
2022-12-03T18:54:29.968Z,36.38
2022-12-03T18:57:00.520Z,41.95
2022-12-03T18:59:30.970Z,47.25
2022-12-03T19:02:01.513Z,48.40
2022-12-03T19:04:32.064Z,48.22
2022-12-03T19:07:02.946Z,62.58
2022-12-03T19:09:33.923Z,64.28
2022-12-03T19:12:07.593Z,44.25
2022-12-03T19:14:41.475Z,30.60
2022-12-03T19:17:11.916Z,28.08
2022-12-03T19:19:42.548Z,20.80
2022-12-03T19:22:13.089Z,22.70
2022-12-03T19:24:45.349Z,18.77
2022-12-03T19:27:16.034Z,18.63
2022-12-03T19:29:47.587Z,19.75
2022-12-03T19:32:18.247Z,19.38
2022-12-03T19:34:48.467Z,22.67
2022-12-03T19:37:18.834Z,21.45
2022-12-03T19:39:49.201Z,19.92
2022-12-03T19:42:20.066Z,19.77
2022-12-03T19:44:50.273Z,18.88
2022-12-03T19:47:21.418Z,20.80
2022-12-03T19:49:52.202Z,19.38
2022-12-03T19:52:22.564Z,17.48
2022-12-03T19:54:52.644Z,18.90
2022-12-03T19:57:23.627Z,19.27
2022-12-03T19:59:54.430Z,17.58
2022-12-03T20:02:24.988Z,19.90
2022-12-03T20:04:55.537Z,16.20
2022-12-03T20:07:26.255Z,19.05
2022-12-03T20:09:57.050Z,22.30
2022-12-03T20:12:27.837Z,28.67
2022-12-03T20:14:58.654Z,33.55
2022-12-03T20:17:29.135Z,36.30
2022-12-03T20:19:59.911Z,32.05
2022-12-03T20:22:31.163Z,30.42
2022-12-03T20:25:01.531Z,27.10
2022-12-03T20:27:32.781Z,22.25
2022-12-03T20:30:03.177Z,20.08
2022-12-03T20:32:33.528Z,16.80
2022-12-03T20:35:04.898Z,16.45
2022-12-03T20:37:35.010Z,16.00
2022-12-03T20:40:06.061Z,15.43
2022-12-03T20:42:36.626Z,15.30
2022-12-03T20:45:07.049Z,15.77
2022-12-03T20:47:37.638Z,12.77
2022-12-03T20:50:08.309Z,17.45
2022-12-03T20:52:38.676Z,14.93
2022-12-03T20:55:09.147Z,14.15
2022-12-03T20:57:39.726Z,14.38
2022-12-03T21:00:10.437Z,13.07
2022-12-03T21:02:41.609Z,16.73
2022-12-03T21:05:12.336Z,14.23
2022-12-03T21:07:42.617Z,15.35
2022-12-03T21:10:32.720Z,16.00
2022-12-03T21:13:03.034Z,16.00
2022-12-03T21:15:33.637Z,35.67
2022-12-03T21:18:04.100Z,65.03
2022-12-03T21:20:34.422Z,81.95
2022-12-03T21:23:04.725Z,81.00
2022-12-03T21:25:36.909Z,84.72
2022-12-03T21:28:07.694Z,88.13
2022-12-03T21:30:41.743Z,87.25
2022-12-03T21:33:12.195Z,81.03
2022-12-03T21:35:42.539Z,76.53
2022-12-03T21:38:13.249Z,73.05
2022-12-03T21:40:43.638Z,73.25
2022-12-03T21:43:14.299Z,69.00
2022-12-03T21:45:46.105Z,63.95
2022-12-03T21:48:17.023Z,53.53
2022-12-03T21:50:47.926Z,54.25
2022-12-03T21:53:18.266Z,49.70
2022-12-03T21:55:48.537Z,45.22
2022-12-03T21:58:18.942Z,41.05
2022-12-03T22:00:49.573Z,31.13
2022-12-03T22:03:20.497Z,31.05
2022-12-03T22:05:52.262Z,31.15
2022-12-03T22:08:22.778Z,23.85
2022-12-03T22:10:53.148Z,25.65
2022-12-03T22:13:23.857Z,22.05
2022-12-03T22:15:54.655Z,21.80
2022-12-03T22:18:25.478Z,22.00
2022-12-03T22:20:56.748Z,19.10
2022-12-03T22:23:26.949Z,21.15
2022-12-03T22:26:04.571Z,20.40
2022-12-03T22:28:35.492Z,24.95
2022-12-03T22:31:09.627Z,35.22
2022-12-03T22:33:40.092Z,34.85
2022-12-03T22:36:19.610Z,50.38
2022-12-03T22:38:51.267Z,55.33
2022-12-03T22:41:22.665Z,48.10
2022-12-03T22:43:53.187Z,44.83
2022-12-03T22:46:23.736Z,39.50
2022-12-03T22:48:53.978Z,39.40
2022-12-03T22:51:25.579Z,37.30
2022-12-03T22:53:57.573Z,42.55
2022-12-03T22:56:28.545Z,40.38
2022-12-03T22:58:59.465Z,40.58
2022-12-03T23:01:31.959Z,45.83
2022-12-03T23:04:02.696Z,61.67
2022-12-03T23:06:34.196Z,41.33
2022-12-03T23:09:04.631Z,30.05
2022-12-03T23:11:35.749Z,26.08
2022-12-03T23:14:06.270Z,22.20
2022-12-03T23:16:36.794Z,19.60
2022-12-03T23:19:07.343Z,16.27
2022-12-03T23:21:38.616Z,18.75
2022-12-03T23:24:09.460Z,19.13
2022-12-03T23:26:41.032Z,21.38
2022-12-03T23:29:11.976Z,21.17
2022-12-03T23:31:42.651Z,23.30
2022-12-03T23:34:13.598Z,26.70
2022-12-03T23:36:44.130Z,26.80
2022-12-03T23:39:14.531Z,25.17
2022-12-03T23:41:45.022Z,25.23
2022-12-03T23:44:15.372Z,21.85
2022-12-03T23:46:45.923Z,18.10
2022-12-03T23:49:16.978Z,19.55
2022-12-03T23:51:47.426Z,18.75
2022-12-03T23:54:18.160Z,16.45
2022-12-03T23:56:49.201Z,18.10
2022-12-03T23:59:20.508Z,17.67
